sensor_id;sensor_type;location;lat;lon;timestamp;pressure;altitude;pressure_sealevel;temperature
19040;BMP180;9652;49.014;12.052;2023-11-18T00:00:59;98505.00;;;7.30
19040;BMP180;9652;49.014;12.052;2023-11-18T00:03:27;98504.00;;;7.30
19040;BMP180;9652;49.014;12.052;2023-11-18T00:05:54;98506.00;;;7.40
19040;BMP180;9652;49.014;12.052;2023-11-18T00:08:21;98501.00;;;7.40
19040;BMP180;9652;49.014;12.052;2023-11-18T00:10:49;98498.00;;;7.40
19040;BMP180;9652;49.014;12.052;2023-11-18T00:13:16;98507.00;;;7.40
19040;BMP180;9652;49.014;12.052;2023-11-18T00:15:43;98515.00;;;7.40
19040;BMP180;9652;49.014;12.052;2023-11-18T00:18:11;98504.00;;;7.30
19040;BMP180;9652;49.014;12.052;2023-11-18T00:20:40;98500.00;;;7.30
19040;BMP180;9652;49.014;12.052;2023-11-18T00:23:08;98523.00;;;7.30
19040;BMP180;9652;49.014;12.052;2023-11-18T00:25:35;98519.00;;;7.30
19040;BMP180;9652;49.014;12.052;2023-11-18T00:28:05;98489.00;;;7.20
19040;BMP180;9652;49.014;12.052;2023-11-18T00:30:33;98506.00;;;7.20
19040;BMP180;9652;49.014;12.052;2023-11-18T00:33:00;98454.00;;;7.20
19040;BMP180;9652;49.014;12.052;2023-11-18T00:35:27;98507.00;;;7.20
19040;BMP180;9652;49.014;12.052;2023-11-18T00:37:59;98509.00;;;7.20
19040;BMP180;9652;49.014;12.052;2023-11-18T00:40:26;98502.00;;;7.20
19040;BMP180;9652;49.014;12.052;2023-11-18T00:42:55;98504.00;;;7.20
19040;BMP180;9652;49.014;12.052;2023-11-18T00:45:22;98488.00;;;7.20
19040;BMP180;9652;49.014;12.052;2023-11-18T00:47:50;98493.00;;;7.20
19040;BMP180;9652;49.014;12.052;2023-11-18T00:50:17;98493.00;;;7.20
19040;BMP180;9652;49.014;12.052;2023-11-18T00:52:44;98518.00;;;7.10
19040;BMP180;9652;49.014;12.052;2023-11-18T00:55:15;98516.00;;;7.20
19040;BMP180;9652;49.014;12.052;2023-11-18T00:57:44;98514.00;;;7.30
19040;BMP180;9652;49.014;12.052;2023-11-18T01:00:13;98519.00;;;7.30
19040;BMP180;9652;49.014;12.052;2023-11-18T01:02:42;98512.00;;;7.30
19040;BMP180;9652;49.014;12.052;2023-11-18T01:05:09;98516.00;;;7.40
19040;BMP180;9652;49.014;12.052;2023-11-18T01:07:37;98529.00;;;7.40
19040;BMP180;9652;49.014;12.052;2023-11-18T01:10:05;98534.00;;;7.40
19040;BMP180;9652;49.014;12.052;2023-11-18T01:12:34;98537.00;;;7.50
19040;BMP180;9652;49.014;12.052;2023-11-18T01:15:01;98529.00;;;7.30
19040;BMP180;9652;49.014;12.052;2023-11-18T01:17:29;98528.00;;;7.50
19040;BMP180;9652;49.014;12.052;2023-11-18T01:19:58;98541.00;;;7.60
19040;BMP180;9652;49.014;12.052;2023-11-18T01:22:26;98526.00;;;7.60
19040;BMP180;9652;49.014;12.052;2023-11-18T01:24:55;98540.00;;;7.60
19040;BMP180;9652;49.014;12.052;2023-11-18T01:27:23;98525.00;;;7.60
19040;BMP180;9652;49.014;12.052;2023-11-18T01:29:52;98540.00;;;7.70
19040;BMP180;9652;49.014;12.052;2023-11-18T01:32:19;98521.00;;;7.70
19040;BMP180;9652;49.014;12.052;2023-11-18T01:34:46;98546.00;;;7.70
19040;BMP180;9652;49.014;12.052;2023-11-18T01:37:16;98527.00;;;7.70
19040;BMP180;9652;49.014;12.052;2023-11-18T01:39:43;98549.00;;;7.70
19040;BMP180;9652;49.014;12.052;2023-11-18T01:42:10;98554.00;;;7.70
19040;BMP180;9652;49.014;12.052;2023-11-18T01:44:37;98539.00;;;7.70
19040;BMP180;9652;49.014;12.052;2023-11-18T01:47:07;98545.00;;;7.70
19040;BMP180;9652;49.014;12.052;2023-11-18T01:49:38;98557.00;;;7.70
19040;BMP180;9652;49.014;12.052;2023-11-18T01:52:06;98534.00;;;7.70
19040;BMP180;9652;49.014;12.052;2023-11-18T01:54:36;98550.00;;;7.70
19040;BMP180;9652;49.014;12.052;2023-11-18T01:57:05;98558.00;;;7.80
19040;BMP180;9652;49.014;12.052;2023-11-18T01:59:35;98556.00;;;7.80
19040;BMP180;9652;49.014;12.052;2023-11-18T02:02:05;98523.00;;;7.80
19040;BMP180;9652;49.014;12.052;2023-11-18T02:04:32;98557.00;;;7.80
19040;BMP180;9652;49.014;12.052;2023-11-18T02:07:00;98565.00;;;7.80
19040;BMP180;9652;49.014;12.052;2023-11-18T02:09:30;98557.00;;;7.80
19040;BMP180;9652;49.014;12.052;2023-11-18T02:12:07;98558.00;;;7.80
19040;BMP180;9652;49.014;12.052;2023-11-18T02:14:39;98555.00;;;7.80
19040;BMP180;9652;49.014;12.052;2023-11-18T02:17:12;98552.00;;;7.80
19040;BMP180;9652;49.014;12.052;2023-11-18T02:19:42;98553.00;;;7.80
19040;BMP180;9652;49.014;12.052;2023-11-18T02:22:09;98556.00;;;7.80
19040;BMP180;9652;49.014;12.052;2023-11-18T02:24:37;98558.00;;;7.90
19040;BMP180;9652;49.014;12.052;2023-11-18T02:27:08;98556.00;;;7.90
19040;BMP180;9652;49.014;12.052;2023-11-18T02:29:41;98552.00;;;7.90
19040;BMP180;9652;49.014;12.052;2023-11-18T02:32:29;98550.00;;;7.90
19040;BMP180;9652;49.014;12.052;2023-11-18T02:35:05;98551.00;;;7.90
19040;BMP180;9652;49.014;12.052;2023-11-18T02:37:39;98520.00;;;7.90
19040;BMP180;9652;49.014;12.052;2023-11-18T02:40:12;98555.00;;;7.90
19040;BMP180;9652;49.014;12.052;2023-11-18T02:42:44;98536.00;;;7.90
19040;BMP180;9652;49.014;12.052;2023-11-18T02:45:14;98545.00;;;8.00
19040;BMP180;9652;49.014;12.052;2023-11-18T02:47:44;98547.00;;;8.00
19040;BMP180;9652;49.014;12.052;2023-11-18T02:50:12;98554.00;;;8.00
19040;BMP180;9652;49.014;12.052;2023-11-18T02:52:39;98567.00;;;8.00
19040;BMP180;9652;49.014;12.052;2023-11-18T02:55:07;98539.00;;;8.00
19040;BMP180;9652;49.014;12.052;2023-11-18T02:57:35;98559.00;;;8.00
19040;BMP180;9652;49.014;12.052;2023-11-18T03:00:05;98565.00;;;8.00
19040;BMP180;9652;49.014;12.052;2023-11-18T03:02:37;98554.00;;;8.00
19040;BMP180;9652;49.014;12.052;2023-11-18T03:05:06;98540.00;;;8.00
19040;BMP180;9652;49.014;12.052;2023-11-18T03:07:37;98547.00;;;8.00
19040;BMP180;9652;49.014;12.052;2023-11-18T03:10:05;98563.00;;;8.00
19040;BMP180;9652;49.014;12.052;2023-11-18T03:12:37;98567.00;;;8.00
19040;BMP180;9652;49.014;12.052;2023-11-18T03:15:07;98570.00;;;8.00
19040;BMP180;9652;49.014;12.052;2023-11-18T03:17:35;98569.00;;;8.00
19040;BMP180;9652;49.014;12.052;2023-11-18T03:20:05;98579.00;;;7.80
19040;BMP180;9652;49.014;12.052;2023-11-18T03:22:34;98580.00;;;8.00
19040;BMP180;9652;49.014;12.052;2023-11-18T03:25:01;98582.00;;;8.00
19040;BMP180;9652;49.014;12.052;2023-11-18T03:27:29;98587.00;;;8.00
19040;BMP180;9652;49.014;12.052;2023-11-18T03:29:56;98582.00;;;8.10
19040;BMP180;9652;49.014;12.052;2023-11-18T03:32:24;98582.00;;;8.10
19040;BMP180;9652;49.014;12.052;2023-11-18T03:34:51;98588.00;;;8.10
19040;BMP180;9652;49.014;12.052;2023-11-18T03:37:18;98590.00;;;8.10
19040;BMP180;9652;49.014;12.052;2023-11-18T03:39:49;98588.00;;;8.10
19040;BMP180;9652;49.014;12.052;2023-11-18T03:42:16;98596.00;;;8.10
19040;BMP180;9652;49.014;12.052;2023-11-18T03:44:44;98599.00;;;8.10
19040;BMP180;9652;49.014;12.052;2023-11-18T03:47:13;98619.00;;;8.10
19040;BMP180;9652;49.014;12.052;2023-11-18T03:49:42;98614.00;;;8.10
19040;BMP180;9652;49.014;12.052;2023-11-18T03:52:09;98610.00;;;8.00
19040;BMP180;9652;49.014;12.052;2023-11-18T03:54:36;98616.00;;;8.10
19040;BMP180;9652;49.014;12.052;2023-11-18T03:57:04;98616.00;;;8.00
19040;BMP180;9652;49.014;12.052;2023-11-18T03:59:31;98610.00;;;8.00
19040;BMP180;9652;49.014;12.052;2023-11-18T04:01:58;98596.00;;;8.00
19040;BMP180;9652;49.014;12.052;2023-11-18T04:04:25;98616.00;;;8.00
19040;BMP180;9652;49.014;12.052;2023-11-18T04:06:55;98615.00;;;8.00
19040;BMP180;9652;49.014;12.052;2023-11-18T04:09:22;98611.00;;;8.10
19040;BMP180;9652;49.014;12.052;2023-11-18T04:11:50;98609.00;;;8.00
19040;BMP180;9652;49.014;12.052;2023-11-18T04:14:17;98613.00;;;8.00
19040;BMP180;9652;49.014;12.052;2023-11-18T04:16:45;98611.00;;;8.00
19040;BMP180;9652;49.014;12.052;2023-11-18T04:19:12;98608.00;;;8.00
19040;BMP180;9652;49.014;12.052;2023-11-18T04:21:39;98618.00;;;8.00
19040;BMP180;9652;49.014;12.052;2023-11-18T04:24:08;98605.00;;;8.00
19040;BMP180;9652;49.014;12.052;2023-11-18T04:26:36;98603.00;;;8.00
19040;BMP180;9652;49.014;12.052;2023-11-18T04:29:03;98609.00;;;7.90
19040;BMP180;9652;49.014;12.052;2023-11-18T04:31:30;98612.00;;;8.00
19040;BMP180;9652;49.014;12.052;2023-11-18T04:33:57;98604.00;;;8.00
19040;BMP180;9652;49.014;12.052;2023-11-18T04:36:24;98603.00;;;8.00
19040;BMP180;9652;49.014;12.052;2023-11-18T04:38:52;98607.00;;;8.00
19040;BMP180;9652;49.014;12.052;2023-11-18T04:41:21;98605.00;;;8.00
19040;BMP180;9652;49.014;12.052;2023-11-18T04:43:49;98610.00;;;8.00
19040;BMP180;9652;49.014;12.052;2023-11-18T04:46:16;98623.00;;;8.00
19040;BMP180;9652;49.014;12.052;2023-11-18T04:48:43;98625.00;;;8.00
19040;BMP180;9652;49.014;12.052;2023-11-18T04:51:10;98623.00;;;8.00
19040;BMP180;9652;49.014;12.052;2023-11-18T04:53:38;98627.00;;;7.90
19040;BMP180;9652;49.014;12.052;2023-11-18T04:56:07;98626.00;;;7.90
19040;BMP180;9652;49.014;12.052;2023-11-18T04:58:38;98621.00;;;7.90
19040;BMP180;9652;49.014;12.052;2023-11-18T05:01:05;98627.00;;;7.80
19040;BMP180;9652;49.014;12.052;2023-11-18T05:03:32;98619.00;;;7.80
19040;BMP180;9652;49.014;12.052;2023-11-18T05:05:59;98622.00;;;7.80
19040;BMP180;9652;49.014;12.052;2023-11-18T05:08:27;98499.00;;;7.80
19040;BMP180;9652;49.014;12.052;2023-11-18T05:10:54;98619.00;;;7.80
19040;BMP180;9652;49.014;12.052;2023-11-18T05:13:21;98620.00;;;7.80
19040;BMP180;9652;49.014;12.052;2023-11-18T05:15:49;98619.00;;;7.70
19040;BMP180;9652;49.014;12.052;2023-11-18T05:18:20;98604.00;;;7.70
19040;BMP180;9652;49.014;12.052;2023-11-18T05:20:47;98620.00;;;7.70
19040;BMP180;9652;49.014;12.052;2023-11-18T05:23:14;98621.00;;;7.70
19040;BMP180;9652;49.014;12.052;2023-11-18T05:25:42;98619.00;;;7.70
19040;BMP180;9652;49.014;12.052;2023-11-18T05:28:10;98625.00;;;7.70
19040;BMP180;9652;49.014;12.052;2023-11-18T05:30:37;98606.00;;;7.70
19040;BMP180;9652;49.014;12.052;2023-11-18T05:33:06;98606.00;;;7.70
19040;BMP180;9652;49.014;12.052;2023-11-18T05:35:33;98607.00;;;7.70
19040;BMP180;9652;49.014;12.052;2023-11-18T05:38:01;98590.00;;;7.70
19040;BMP180;9652;49.014;12.052;2023-11-18T05:40:29;98600.00;;;7.70
19040;BMP180;9652;49.014;12.052;2023-11-18T05:42:56;98597.00;;;7.70
19040;BMP180;9652;49.014;12.052;2023-11-18T05:45:24;98611.00;;;7.70
19040;BMP180;9652;49.014;12.052;2023-11-18T05:48:11;98605.00;;;7.70
19040;BMP180;9652;49.014;12.052;2023-11-18T05:50:38;98625.00;;;7.70
19040;BMP180;9652;49.014;12.052;2023-11-18T05:53:05;98620.00;;;7.70
19040;BMP180;9652;49.014;12.052;2023-11-18T05:55:32;98606.00;;;7.70
19040;BMP180;9652;49.014;12.052;2023-11-18T05:57:59;98624.00;;;7.70
19040;BMP180;9652;49.014;12.052;2023-11-18T06:00:27;98616.00;;;7.70
19040;BMP180;9652;49.014;12.052;2023-11-18T06:02:56;98618.00;;;7.70
19040;BMP180;9652;49.014;12.052;2023-11-18T06:05:24;98612.00;;;7.70
19040;BMP180;9652;49.014;12.052;2023-11-18T06:07:52;98630.00;;;7.70
19040;BMP180;9652;49.014;12.052;2023-11-18T06:10:19;98628.00;;;7.70
19040;BMP180;9652;49.014;12.052;2023-11-18T06:12:46;98627.00;;;7.70
19040;BMP180;9652;49.014;12.052;2023-11-18T06:15:13;98633.00;;;7.70
19040;BMP180;9652;49.014;12.052;2023-11-18T06:17:43;98628.00;;;7.70
19040;BMP180;9652;49.014;12.052;2023-11-18T06:20:12;98637.00;;;7.60
19040;BMP180;9652;49.014;12.052;2023-11-18T06:22:41;98637.00;;;7.60
19040;BMP180;9652;49.014;12.052;2023-11-18T06:25:08;98645.00;;;7.60
19040;BMP180;9652;49.014;12.052;2023-11-18T06:27:38;98644.00;;;7.60
19040;BMP180;9652;49.014;12.052;2023-11-18T06:30:07;98641.00;;;7.60
19040;BMP180;9652;49.014;12.052;2023-11-18T06:32:36;98645.00;;;7.60
19040;BMP180;9652;49.014;12.052;2023-11-18T06:35:06;98642.00;;;7.50
19040;BMP180;9652;49.014;12.052;2023-11-18T06:37:34;98658.00;;;7.50
19040;BMP180;9652;49.014;12.052;2023-11-18T06:40:03;98652.00;;;7.50
19040;BMP180;9652;49.014;12.052;2023-11-18T06:42:38;98658.00;;;7.40
19040;BMP180;9652;49.014;12.052;2023-11-18T06:45:06;98655.00;;;7.40
19040;BMP180;9652;49.014;12.052;2023-11-18T06:47:35;98656.00;;;7.30
19040;BMP180;9652;49.014;12.052;2023-11-18T06:50:04;98652.00;;;7.30
19040;BMP180;9652;49.014;12.052;2023-11-18T06:52:32;98656.00;;;7.20
19040;BMP180;9652;49.014;12.052;2023-11-18T06:55:05;98656.00;;;7.10
19040;BMP180;9652;49.014;12.052;2023-11-18T06:57:33;98648.00;;;7.10
19040;BMP180;9652;49.014;12.052;2023-11-18T07:00:00;98661.00;;;7.00
19040;BMP180;9652;49.014;12.052;2023-11-18T07:02:33;98659.00;;;7.00
19040;BMP180;9652;49.014;12.052;2023-11-18T07:05:00;98672.00;;;7.00
19040;BMP180;9652;49.014;12.052;2023-11-18T07:07:27;98631.00;;;6.90
19040;BMP180;9652;49.014;12.052;2023-11-18T07:09:55;98665.00;;;6.90
19040;BMP180;9652;49.014;12.052;2023-11-18T07:12:23;98667.00;;;6.90
19040;BMP180;9652;49.014;12.052;2023-11-18T07:14:50;98666.00;;;7.00
19040;BMP180;9652;49.014;12.052;2023-11-18T07:17:19;98678.00;;;7.00
19040;BMP180;9652;49.014;12.052;2023-11-18T07:19:47;98665.00;;;7.00
19040;BMP180;9652;49.014;12.052;2023-11-18T07:22:14;98659.00;;;7.10
19040;BMP180;9652;49.014;12.052;2023-11-18T07:24:41;98675.00;;;7.10
19040;BMP180;9652;49.014;12.052;2023-11-18T07:27:09;98687.00;;;7.20
19040;BMP180;9652;49.014;12.052;2023-11-18T07:29:38;98679.00;;;7.20
19040;BMP180;9652;49.014;12.052;2023-11-18T07:32:06;98686.00;;;7.20
19040;BMP180;9652;49.014;12.052;2023-11-18T07:34:33;98685.00;;;7.30
19040;BMP180;9652;49.014;12.052;2023-11-18T07:37:01;98681.00;;;7.30
19040;BMP180;9652;49.014;12.052;2023-11-18T07:39:28;98707.00;;;7.30
19040;BMP180;9652;49.014;12.052;2023-11-18T07:42:11;98721.00;;;7.30
19040;BMP180;9652;49.014;12.052;2023-11-18T07:44:39;98715.00;;;7.40
19040;BMP180;9652;49.014;12.052;2023-11-18T07:47:06;98720.00;;;7.40
19040;BMP180;9652;49.014;12.052;2023-11-18T07:49:34;98698.00;;;7.40
19040;BMP180;9652;49.014;12.052;2023-11-18T07:52:01;98723.00;;;7.50
19040;BMP180;9652;49.014;12.052;2023-11-18T07:54:28;98711.00;;;7.50
19040;BMP180;9652;49.014;12.052;2023-11-18T07:56:55;98709.00;;;7.60
19040;BMP180;9652;49.014;12.052;2023-11-18T07:59:23;98721.00;;;7.60
19040;BMP180;9652;49.014;12.052;2023-11-18T08:01:51;98714.00;;;7.60
19040;BMP180;9652;49.014;12.052;2023-11-18T08:04:19;98729.00;;;7.60
19040;BMP180;9652;49.014;12.052;2023-11-18T08:06:47;98719.00;;;7.70
19040;BMP180;9652;49.014;12.052;2023-11-18T08:09:15;98682.00;;;7.70
19040;BMP180;9652;49.014;12.052;2023-11-18T08:11:49;98717.00;;;7.80
19040;BMP180;9652;49.014;12.052;2023-11-18T08:14:16;98704.00;;;7.80
19040;BMP180;9652;49.014;12.052;2023-11-18T08:16:43;98709.00;;;7.90
19040;BMP180;9652;49.014;12.052;2023-11-18T08:19:11;98712.00;;;8.00
19040;BMP180;9652;49.014;12.052;2023-11-18T08:21:38;98699.00;;;8.00
19040;BMP180;9652;49.014;12.052;2023-11-18T08:24:07;98720.00;;;8.00
19040;BMP180;9652;49.014;12.052;2023-11-18T08:26:34;98714.00;;;8.10
19040;BMP180;9652;49.014;12.052;2023-11-18T08:29:01;98710.00;;;8.10
19040;BMP180;9652;49.014;12.052;2023-11-18T08:31:29;98714.00;;;8.20
19040;BMP180;9652;49.014;12.052;2023-11-18T08:33:56;98722.00;;;8.20
19040;BMP180;9652;49.014;12.052;2023-11-18T08:36:25;98716.00;;;8.20
19040;BMP180;9652;49.014;12.052;2023-11-18T08:38:53;98718.00;;;8.20
19040;BMP180;9652;49.014;12.052;2023-11-18T08:41:22;98716.00;;;8.20
19040;BMP180;9652;49.014;12.052;2023-11-18T08:43:49;98722.00;;;8.30
19040;BMP180;9652;49.014;12.052;2023-11-18T08:46:16;98707.00;;;8.30
19040;BMP180;9652;49.014;12.052;2023-11-18T08:48:43;98703.00;;;8.30
19040;BMP180;9652;49.014;12.052;2023-11-18T08:51:11;98705.00;;;8.30
19040;BMP180;9652;49.014;12.052;2023-11-18T08:53:40;98705.00;;;8.40
19040;BMP180;9652;49.014;12.052;2023-11-18T08:56:08;98712.00;;;8.40
19040;BMP180;9652;49.014;12.052;2023-11-18T08:58:42;98717.00;;;8.50
19040;BMP180;9652;49.014;12.052;2023-11-18T09:01:10;98718.00;;;8.60
19040;BMP180;9652;49.014;12.052;2023-11-18T09:03:41;98733.00;;;8.60
19040;BMP180;9652;49.014;12.052;2023-11-18T09:06:15;98720.00;;;8.70
19040;BMP180;9652;49.014;12.052;2023-11-18T09:08:53;98715.00;;;8.80
19040;BMP180;9652;49.014;12.052;2023-11-18T09:11:22;98707.00;;;8.80
19040;BMP180;9652;49.014;12.052;2023-11-18T09:13:51;98699.00;;;8.90
19040;BMP180;9652;49.014;12.052;2023-11-18T09:16:20;98690.00;;;9.00
19040;BMP180;9652;49.014;12.052;2023-11-18T09:18:49;98709.00;;;9.10
19040;BMP180;9652;49.014;12.052;2023-11-18T09:21:17;98713.00;;;9.10
19040;BMP180;9652;49.014;12.052;2023-11-18T09:23:49;98716.00;;;9.20
19040;BMP180;9652;49.014;12.052;2023-11-18T09:26:17;98721.00;;;9.20
19040;BMP180;9652;49.014;12.052;2023-11-18T09:28:44;98733.00;;;9.30
19040;BMP180;9652;49.014;12.052;2023-11-18T09:31:11;98731.00;;;9.40
19040;BMP180;9652;49.014;12.052;2023-11-18T09:33:41;98735.00;;;9.40
19040;BMP180;9652;49.014;12.052;2023-11-18T09:36:13;98731.00;;;9.50
19040;BMP180;9652;49.014;12.052;2023-11-18T09:38:41;98729.00;;;9.60
19040;BMP180;9652;49.014;12.052;2023-11-18T09:41:10;98731.00;;;9.60
19040;BMP180;9652;49.014;12.052;2023-11-18T09:43:42;98698.00;;;9.70
19040;BMP180;9652;49.014;12.052;2023-11-18T09:46:12;98748.00;;;9.80
19040;BMP180;9652;49.014;12.052;2023-11-18T09:48:44;98731.00;;;9.80
19040;BMP180;9652;49.014;12.052;2023-11-18T09:51:23;98757.00;;;9.50
19040;BMP180;9652;49.014;12.052;2023-11-18T09:53:52;98725.00;;;9.90
19040;BMP180;9652;49.014;12.052;2023-11-18T09:56:30;98726.00;;;10.00
19040;BMP180;9652;49.014;12.052;2023-11-18T09:59:11;98680.00;;;10.00
19040;BMP180;9652;49.014;12.052;2023-11-18T10:01:43;98721.00;;;10.10
19040;BMP180;9652;49.014;12.052;2023-11-18T10:04:14;98724.00;;;10.10
19040;BMP180;9652;49.014;12.052;2023-11-18T10:06:45;98687.00;;;10.20
19040;BMP180;9652;49.014;12.052;2023-11-18T10:09:13;98718.00;;;10.20
19040;BMP180;9652;49.014;12.052;2023-11-18T10:11:48;98717.00;;;10.20
19040;BMP180;9652;49.014;12.052;2023-11-18T10:14:16;98714.00;;;10.30
19040;BMP180;9652;49.014;12.052;2023-11-18T10:16:44;98699.00;;;10.30
19040;BMP180;9652;49.014;12.052;2023-11-18T10:19:13;98700.00;;;10.40
19040;BMP180;9652;49.014;12.052;2023-11-18T10:21:43;98671.00;;;10.50
19040;BMP180;9652;49.014;12.052;2023-11-18T10:24:15;98698.00;;;10.50
19040;BMP180;9652;49.014;12.052;2023-11-18T10:26:54;98694.00;;;10.60
19040;BMP180;9652;49.014;12.052;2023-11-18T10:29:26;98693.00;;;10.60
19040;BMP180;9652;49.014;12.052;2023-11-18T10:32:04;98701.00;;;10.60
19040;BMP180;9652;49.014;12.052;2023-11-18T10:34:36;98697.00;;;10.70
19040;BMP180;9652;49.014;12.052;2023-11-18T10:37:03;98688.00;;;10.70
19040;BMP180;9652;49.014;12.052;2023-11-18T10:39:32;98702.00;;;10.70
19040;BMP180;9652;49.014;12.052;2023-11-18T10:42:01;98699.00;;;10.60
19040;BMP180;9652;49.014;12.052;2023-11-18T10:44:30;98668.00;;;10.60
19040;BMP180;9652;49.014;12.052;2023-11-18T10:46:58;98695.00;;;10.60
19040;BMP180;9652;49.014;12.052;2023-11-18T10:49:27;98690.00;;;10.60
19040;BMP180;9652;49.014;12.052;2023-11-18T10:51:55;98669.00;;;10.70
19040;BMP180;9652;49.014;12.052;2023-11-18T10:54:23;98686.00;;;10.70
19040;BMP180;9652;49.014;12.052;2023-11-18T10:56:52;98688.00;;;10.70
19040;BMP180;9652;49.014;12.052;2023-11-18T10:59:22;98695.00;;;10.70
19040;BMP180;9652;49.014;12.052;2023-11-18T11:01:52;98686.00;;;10.70
19040;BMP180;9652;49.014;12.052;2023-11-18T11:04:21;98711.00;;;10.70
19040;BMP180;9652;49.014;12.052;2023-11-18T11:06:50;98682.00;;;10.70
19040;BMP180;9652;49.014;12.052;2023-11-18T11:09:24;98685.00;;;10.70
19040;BMP180;9652;49.014;12.052;2023-11-18T11:11:55;98678.00;;;10.70
19040;BMP180;9652;49.014;12.052;2023-11-18T11:14:31;98692.00;;;10.70
19040;BMP180;9652;49.014;12.052;2023-11-18T11:17:07;98696.00;;;10.70
19040;BMP180;9652;49.014;12.052;2023-11-18T11:19:48;98694.00;;;10.70
19040;BMP180;9652;49.014;12.052;2023-11-18T11:22:28;98693.00;;;10.70
19040;BMP180;9652;49.014;12.052;2023-11-18T11:25:08;98700.00;;;10.70
19040;BMP180;9652;49.014;12.052;2023-11-18T11:27:45;98699.00;;;10.60
19040;BMP180;9652;49.014;12.052;2023-11-18T11:30:22;98670.00;;;10.60
19040;BMP180;9652;49.014;12.052;2023-11-18T11:32:57;98685.00;;;10.60
19040;BMP180;9652;49.014;12.052;2023-11-18T11:35:33;98687.00;;;10.60
19040;BMP180;9652;49.014;12.052;2023-11-18T11:38:01;98688.00;;;10.60
19040;BMP180;9652;49.014;12.052;2023-11-18T11:40:37;98678.00;;;10.60
19040;BMP180;9652;49.014;12.052;2023-11-18T11:43:08;98695.00;;;10.60
19040;BMP180;9652;49.014;12.052;2023-11-18T11:45:37;98684.00;;;10.60
19040;BMP180;9652;49.014;12.052;2023-11-18T11:48:08;98688.00;;;10.60
19040;BMP180;9652;49.014;12.052;2023-11-18T11:51:12;98680.00;;;10.60
19040;BMP180;9652;49.014;12.052;2023-11-18T11:53:53;98677.00;;;10.40
19040;BMP180;9652;49.014;12.052;2023-11-18T11:56:39;98672.00;;;10.50
19040;BMP180;9652;49.014;12.052;2023-11-18T11:59:06;98671.00;;;10.50
19040;BMP180;9652;49.014;12.052;2023-11-18T12:01:37;98656.00;;;10.50
19040;BMP180;9652;49.014;12.052;2023-11-18T12:04:09;98660.00;;;10.50
19040;BMP180;9652;49.014;12.052;2023-11-18T12:06:47;98662.00;;;10.60
19040;BMP180;9652;49.014;12.052;2023-11-18T12:09:19;98665.00;;;10.60
19040;BMP180;9652;49.014;12.052;2023-11-18T12:11:48;98649.00;;;10.70
19040;BMP180;9652;49.014;12.052;2023-11-18T12:14:16;98649.00;;;10.70
19040;BMP180;9652;49.014;12.052;2023-11-18T12:17:08;98651.00;;;10.80
19040;BMP180;9652;49.014;12.052;2023-11-18T12:19:37;98643.00;;;10.90
19040;BMP180;9652;49.014;12.052;2023-11-18T12:22:13;98645.00;;;10.90
19040;BMP180;9652;49.014;12.052;2023-11-18T12:24:45;98622.00;;;11.00
19040;BMP180;9652;49.014;12.052;2023-11-18T12:27:51;98635.00;;;11.10
19040;BMP180;9652;49.014;12.052;2023-11-18T12:30:39;98613.00;;;11.20
19040;BMP180;9652;49.014;12.052;2023-11-18T12:33:09;98604.00;;;11.20
19040;BMP180;9652;49.014;12.052;2023-11-18T12:42:58;98579.00;;;11.20
19040;BMP180;9652;49.014;12.052;2023-11-18T12:46:30;98589.00;;;11.20
19040;BMP180;9652;49.014;12.052;2023-11-18T12:49:03;98582.00;;;11.20
19040;BMP180;9652;49.014;12.052;2023-11-18T12:51:32;98572.00;;;11.30
19040;BMP180;9652;49.014;12.052;2023-11-18T12:54:03;98557.00;;;11.30
19040;BMP180;9652;49.014;12.052;2023-11-18T12:56:33;98555.00;;;11.40
19040;BMP180;9652;49.014;12.052;2023-11-18T12:59:00;98557.00;;;11.40
19040;BMP180;9652;49.014;12.052;2023-11-18T13:01:33;98568.00;;;11.40
19040;BMP180;9652;49.014;12.052;2023-11-18T13:04:02;98545.00;;;11.40
19040;BMP180;9652;49.014;12.052;2023-11-18T13:06:29;98546.00;;;11.50
19040;BMP180;9652;49.014;12.052;2023-11-18T13:08:58;98546.00;;;11.50
19040;BMP180;9652;49.014;12.052;2023-11-18T13:11:25;98524.00;;;11.50
19040;BMP180;9652;49.014;12.052;2023-11-18T13:13:52;98553.00;;;11.50
19040;BMP180;9652;49.014;12.052;2023-11-18T13:16:20;98548.00;;;11.50
19040;BMP180;9652;49.014;12.052;2023-11-18T13:18:48;98562.00;;;11.50
19040;BMP180;9652;49.014;12.052;2023-11-18T13:21:16;98569.00;;;11.60
19040;BMP180;9652;49.014;12.052;2023-11-18T13:23:47;98573.00;;;11.60
19040;BMP180;9652;49.014;12.052;2023-11-18T13:26:16;98558.00;;;11.60
19040;BMP180;9652;49.014;12.052;2023-11-18T13:28:46;98550.00;;;11.60
19040;BMP180;9652;49.014;12.052;2023-11-18T13:31:13;98551.00;;;11.70
19040;BMP180;9652;49.014;12.052;2023-11-18T13:33:42;98534.00;;;11.70
19040;BMP180;9652;49.014;12.052;2023-11-18T13:36:11;98552.00;;;11.70
19040;BMP180;9652;49.014;12.052;2023-11-18T13:38:38;98545.00;;;11.80
19040;BMP180;9652;49.014;12.052;2023-11-18T13:41:05;98549.00;;;11.80
19040;BMP180;9652;49.014;12.052;2023-11-18T13:43:46;98547.00;;;11.80
19040;BMP180;9652;49.014;12.052;2023-11-18T13:46:14;98540.00;;;11.80
19040;BMP180;9652;49.014;12.052;2023-11-18T13:48:41;98546.00;;;11.80
19040;BMP180;9652;49.014;12.052;2023-11-18T13:51:10;98542.00;;;11.80
19040;BMP180;9652;49.014;12.052;2023-11-18T13:53:39;98547.00;;;11.80
19040;BMP180;9652;49.014;12.052;2023-11-18T13:56:10;98552.00;;;11.80
19040;BMP180;9652;49.014;12.052;2023-11-18T13:58:38;98576.00;;;11.80
19040;BMP180;9652;49.014;12.052;2023-11-18T14:01:09;98568.00;;;11.80
19040;BMP180;9652;49.014;12.052;2023-11-18T14:03:40;98557.00;;;11.80
19040;BMP180;9652;49.014;12.052;2023-11-18T14:06:10;98558.00;;;11.70
19040;BMP180;9652;49.014;12.052;2023-11-18T14:08:38;98557.00;;;11.70
19040;BMP180;9652;49.014;12.052;2023-11-18T14:11:06;98557.00;;;11.70
19040;BMP180;9652;49.014;12.052;2023-11-18T14:13:35;98530.00;;;11.70
19040;BMP180;9652;49.014;12.052;2023-11-18T14:16:04;98548.00;;;11.70
19040;BMP180;9652;49.014;12.052;2023-11-18T14:18:36;98530.00;;;11.60
19040;BMP180;9652;49.014;12.052;2023-11-18T14:21:07;98538.00;;;11.60
19040;BMP180;9652;49.014;12.052;2023-11-18T14:23:35;98524.00;;;11.60
19040;BMP180;9652;49.014;12.052;2023-11-18T14:26:04;98505.00;;;11.60
19040;BMP180;9652;49.014;12.052;2023-11-18T14:28:31;98512.00;;;11.60
19040;BMP180;9652;49.014;12.052;2023-11-18T14:31:00;98502.00;;;11.60
19040;BMP180;9652;49.014;12.052;2023-11-18T14:33:27;98511.00;;;11.60
19040;BMP180;9652;49.014;12.052;2023-11-18T14:35:56;98504.00;;;11.50
19040;BMP180;9652;49.014;12.052;2023-11-18T14:38:23;98503.00;;;11.50